Time;durP1;ratioP1;P1;durP2;ratioP2;P2;SDS_P1;SDS_P2;PMS_P1;PMS_P2;Temp;Humidity;BMP_temperature;BMP_pressure;BME280_temperature;BME280_humidity;BME280_pressure;Samples;Min_cycle;Max_cycle;Signal;HPM_P1;HPM_P2
2024/03/31 00:01:16;;;;;;;11.45;5.85;;;;;;;;;;6214459;23;20273;-49
2024/03/31 00:03:45;;;;;;;13.38;7.32;;;;;;;;;;6214830;23;20185;-52
2024/03/31 00:06:13;;;;;;;12.48;6.57;;;;;;;;;;6214795;23;20649;-51
2024/03/31 00:08:39;;;;;;;10.05;5.53;;;;;;;;;;6214782;23;20174;-50
2024/03/31 00:11:11;;;;;;;8.93;5.18;;;;;;;;;;6214349;23;20201;-50
2024/03/31 00:13:38;;;;;;;15.27;6.15;;;;;;;;;;6214955;23;20816;-50
2024/03/31 00:16:06;;;;;;;15.60;6.00;;;;;;;;;;6214755;23;20174;-50
2024/03/31 00:18:32;;;;;;;10.25;5.78;;;;;;;;;;6214879;23;20182;-51
2024/03/31 00:21:01;;;;;;;6.13;3.78;;;;;;;;;;6214458;23;20225;-49
2024/03/31 00:23:28;;;;;;;8.88;5.70;;;;;;;;;;6214819;23;20178;-49
2024/03/31 00:25:58;;;;;;;7.53;4.60;;;;;;;;;;6214665;23;20181;-51
2024/03/31 00:28:26;;;;;;;8.75;4.40;;;;;;;;;;6214855;23;20682;-51
2024/03/31 00:30:56;;;;;;;8.30;4.68;;;;;;;;;;6214416;23;20280;-50
2024/03/31 00:33:23;;;;;;;6.57;4.63;;;;;;;;;;6214748;23;20177;-50
2024/03/31 00:35:55;;;;;;;5.78;3.90;;;;;;;;;;6214419;23;20220;-49
2024/03/31 00:38:21;;;;;;;9.60;5.32;;;;;;;;;;6214756;23;20180;-51
2024/03/31 00:40:49;;;;;;;7.38;3.90;;;;;;;;;;6214412;23;20205;-50
2024/03/31 00:43:17;;;;;;;9.30;4.43;;;;;;;;;;6213982;23;20511;-50
2024/03/31 00:45:45;;;;;;;6.20;4.03;;;;;;;;;;6214516;23;20177;-49
2024/03/31 00:48:12;;;;;;;12.45;5.32;;;;;;;;;;6214441;23;20623;-51
2024/03/31 00:50:39;;;;;;;12.00;4.63;;;;;;;;;;6213518;23;20198;-53
2024/03/31 00:53:06;;;;;;;7.88;4.30;;;;;;;;;;6214051;23;20178;-52
2024/03/31 00:55:34;;;;;;;9.75;4.03;;;;;;;;;;6213454;23;20181;-51
2024/03/31 00:58:00;;;;;;;9.98;4.47;;;;;;;;;;6214248;23;20181;-49
2024/03/31 01:00:28;;;;;;;7.57;5.13;;;;;;;;;;6213653;23;20224;-50
2024/03/31 01:02:55;;;;;;;8.60;4.95;;;;;;;;;;6213729;23;20170;-52
2024/03/31 01:05:23;;;;;;;12.38;4.53;;;;;;;;;;6213596;23;20174;-49
2024/03/31 01:07:49;;;;;;;8.88;4.90;;;;;;;;;;6213786;23;20180;-49
2024/03/31 01:10:17;;;;;;;9.52;3.60;;;;;;;;;;6213900;23;20174;-51
2024/03/31 01:12:45;;;;;;;6.93;4.43;;;;;;;;;;6213723;23;20194;-50
2024/03/31 01:15:12;;;;;;;11.23;4.78;;;;;;;;;;6214687;23;20504;-50
2024/03/31 01:17:39;;;;;;;7.47;4.75;;;;;;;;;;6213830;23;20257;-49
2024/03/31 01:20:08;;;;;;;6.18;4.50;;;;;;;;;;6213596;23;20173;-50
2024/03/31 01:22:37;;;;;;;7.05;4.03;;;;;;;;;;6214176;23;20169;-50
2024/03/31 01:25:06;;;;;;;8.55;4.57;;;;;;;;;;6214544;23;20174;-51
2024/03/31 01:27:33;;;;;;;9.77;4.65;;;;;;;;;;6213618;23;20226;-50
2024/03/31 01:30:00;;;;;;;11.40;5.45;;;;;;;;;;6213974;23;20513;-49
2024/03/31 01:32:27;;;;;;;6.75;4.85;;;;;;;;;;6213460;23;20208;-50
2024/03/31 01:34:53;;;;;;;3.35;2.63;;;;;;;;;;6213443;23;20174;-51
2024/03/31 01:37:21;;;;;;;3.95;3.25;;;;;;;;;;6213964;23;20256;-51
2024/03/31 01:39:47;;;;;;;6.43;3.55;;;;;;;;;;6213890;23;20196;-50
2024/03/31 01:42:16;;;;;;;10.35;4.40;;;;;;;;;;6213174;23;20666;-54
2024/03/31 01:44:43;;;;;;;6.20;3.50;;;;;;;;;;6213754;23;20224;-52
2024/03/31 01:47:10;;;;;;;5.75;3.25;;;;;;;;;;6213234;23;20651;-51
2024/03/31 01:49:36;;;;;;;7.78;3.78;;;;;;;;;;6213893;23;20196;-49
2024/03/31 01:52:05;;;;;;;7.32;4.25;;;;;;;;;;6213177;23;20210;-49
2024/03/31 01:54:33;;;;;;;6.22;3.85;;;;;;;;;;6212718;23;20180;-51
2024/03/31 01:57:00;;;;;;;11.65;3.83;;;;;;;;;;6213318;23;20181;-54
2024/03/31 01:59:28;;;;;;;6.15;3.60;;;;;;;;;;6213212;23;20180;-52
2024/03/31 02:01:55;;;;;;;6.07;3.90;;;;;;;;;;6212994;23;20196;-52
2024/03/31 02:04:22;;;;;;;5.25;3.00;;;;;;;;;;6213434;23;20248;-50
2024/03/31 02:06:49;;;;;;;3.80;2.72;;;;;;;;;;6213028;23;20264;-52
2024/03/31 02:09:16;;;;;;;4.43;2.58;;;;;;;;;;6213892;23;20512;-51
2024/03/31 02:11:44;;;;;;;3.63;2.70;;;;;;;;;;6212968;23;20201;-50
2024/03/31 02:14:10;;;;;;;2.97;2.65;;;;;;;;;;6213035;23;20185;-51
2024/03/31 02:16:39;;;;;;;4.80;3.30;;;;;;;;;;6212839;23;20174;-51
2024/03/31 02:19:05;;;;;;;9.43;4.70;;;;;;;;;;6213074;23;20180;-52
2024/03/31 02:21:33;;;;;;;6.53;3.88;;;;;;;;;;6213453;23;20193;-51
2024/03/31 02:23:59;;;;;;;6.13;3.20;;;;;;;;;;6213528;23;20626;-51
2024/03/31 02:26:26;;;;;;;5.93;3.92;;;;;;;;;;6213305;23;20321;-51
2024/03/31 02:28:53;;;;;;;11.68;6.38;;;;;;;;;;6212884;23;20626;-51
2024/03/31 02:31:21;;;;;;;7.00;4.97;;;;;;;;;;6213266;23;20198;-50
2024/03/31 02:33:49;;;;;;;9.30;3.95;;;;;;;;;;6213148;23;20204;-52
2024/03/31 02:36:16;;;;;;;5.82;3.70;;;;;;;;;;6213382;23;20181;-51
2024/03/31 02:38:42;;;;;;;5.60;3.58;;;;;;;;;;6213384;23;20173;-51
2024/03/31 02:41:10;;;;;;;3.95;2.78;;;;;;;;;;6212642;23;20229;-51
2024/03/31 02:43:36;;;;;;;3.80;3.33;;;;;;;;;;6212563;23;20176;-52
2024/03/31 02:46:04;;;;;;;5.57;4.00;;;;;;;;;;6213657;23;20205;-52
2024/03/31 02:48:32;;;;;;;5.78;3.65;;;;;;;;;;6213257;23;20196;-52
2024/03/31 02:51:01;;;;;;;3.78;3.20;;;;;;;;;;6212580;23;20194;-51
2024/03/31 02:53:27;;;;;;;5.15;3.55;;;;;;;;;;6213575;23;20219;-54
2024/03/31 02:55:55;;;;;;;9.38;3.78;;;;;;;;;;6213352;23;20785;-54
2024/03/31 02:58:21;;;;;;;9.20;5.63;;;;;;;;;;6213622;23;20181;-52
2024/03/31 03:00:49;;;;;;;11.20;4.35;;;;;;;;;;6213337;23;20709;-54
2024/03/31 03:03:15;;;;;;;10.57;5.18;;;;;;;;;;6212921;23;20248;-53
2024/03/31 03:05:42;;;;;;;11.30;5.25;;;;;;;;;;6213038;23;20178;-52
2024/03/31 03:08:10;;;;;;;10.02;5.10;;;;;;;;;;6213648;23;20179;-51
2024/03/31 03:10:38;;;;;;;4.40;3.97;;;;;;;;;;6212878;23;20194;-51
2024/03/31 03:13:05;;;;;;;5.53;3.15;;;;;;;;;;6212885;23;20272;-51
2024/03/31 03:15:32;;;;;;;9.93;5.22;;;;;;;;;;6212635;23;20220;-52
2024/03/31 03:17:59;;;;;;;5.47;3.65;;;;;;;;;;6213863;23;20180;-52
2024/03/31 03:20:26;;;;;;;4.25;2.97;;;;;;;;;;6214588;23;20204;-54
2024/03/31 03:22:58;;;;;;;6.38;4.55;;;;;;;;;;6215307;23;20512;-52
2024/03/31 03:25:27;;;;;;;8.38;5.97;;;;;;;;;;6214850;23;20174;-51
2024/03/31 03:27:54;;;;;;;10.23;5.30;;;;;;;;;;6215485;23;20594;-54
2024/03/31 03:30:21;;;;;;;5.68;4.47;;;;;;;;;;6214916;23;20174;-51
2024/03/31 03:32:49;;;;;;;3.97;3.47;;;;;;;;;;6214591;23;20200;-53
2024/03/31 03:35:16;;;;;;;10.18;5.65;;;;;;;;;;6215165;23;20181;-52
2024/03/31 03:37:45;;;;;;;8.98;5.45;;;;;;;;;;6215261;23;20174;-53
2024/03/31 03:40:12;;;;;;;9.30;5.78;;;;;;;;;;6215033;23;20261;-50
2024/03/31 03:42:41;;;;;;;5.35;4.43;;;;;;;;;;6215345;23;20177;-51
2024/03/31 03:45:09;;;;;;;10.65;4.55;;;;;;;;;;6215406;23;20177;-51
2024/03/31 03:47:36;;;;;;;9.45;5.28;;;;;;;;;;6215074;23;20638;-52
2024/03/31 03:50:04;;;;;;;9.75;6.10;;;;;;;;;;6214818;23;20642;-52
2024/03/31 03:52:30;;;;;;;10.77;7.00;;;;;;;;;;6215583;23;20201;-53
2024/03/31 03:54:57;;;;;;;14.57;6.07;;;;;;;;;;6214328;23;20228;-51
2024/03/31 03:57:24;;;;;;;11.80;5.75;;;;;;;;;;6214932;23;20181;-53
2024/03/31 03:59:54;;;;;;;12.32;5.35;;;;;;;;;;6215277;23;20723;-53
2024/03/31 04:02:20;;;;;;;10.43;4.15;;;;;;;;;;6214380;23;20194;-51
2024/03/31 04:04:48;;;;;;;12.40;3.40;;;;;;;;;;6214575;23;20181;-52
2024/03/31 04:07:14;;;;;;;7.40;3.42;;;;;;;;;;6214633;23;20252;-51
2024/03/31 04:09:41;;;;;;;10.00;4.13;;;;;;;;;;6214286;23;20180;-52
2024/03/31 04:12:08;;;;;;;11.23;4.80;;;;;;;;;;6214813;23;20272;-51
2024/03/31 04:14:35;;;;;;;11.43;4.68;;;;;;;;;;6213971;23;20642;-53
2024/03/31 04:17:03;;;;;;;12.00;4.20;;;;;;;;;;6214032;23;20256;-51
2024/03/31 04:19:31;;;;;;;7.90;3.72;;;;;;;;;;6215108;23;20253;-53
2024/03/31 04:21:57;;;;;;;10.73;4.35;;;;;;;;;;6214601;23;20526;-52
2024/03/31 04:24:25;;;;;;;10.82;3.55;;;;;;;;;;6214075;23;20219;-52
2024/03/31 04:26:51;;;;;;;6.70;3.50;;;;;;;;;;6215151;23;20185;-53
2024/03/31 04:29:19;;;;;;;12.15;6.60;;;;;;;;;;6213463;23;20177;-52
2024/03/31 04:31:53;;;;;;;8.15;4.53;;;;;;;;;;6214910;23;20202;-52
2024/03/31 04:34:23;;;;;;;6.57;4.53;;;;;;;;;;6214781;23;20197;-53
2024/03/31 04:36:50;;;;;;;7.00;4.32;;;;;;;;;;6215078;23;20249;-51
2024/03/31 04:39:17;;;;;;;7.13;4.50;;;;;;;;;;6214236;23;20181;-52
2024/03/31 04:41:44;;;;;;;6.07;5.10;;;;;;;;;;6214055;23;20219;-52
2024/03/31 04:44:12;;;;;;;5.50;3.75;;;;;;;;;;6214852;23;20706;-51
2024/03/31 04:46:38;;;;;;;8.20;4.38;;;;;;;;;;6214944;23;20239;-54
2024/03/31 04:49:06;;;;;;;6.13;4.75;;;;;;;;;;6214345;23;20173;-52
2024/03/31 04:51:33;;;;;;;5.05;3.95;;;;;;;;;;6214365;23;20277;-52
2024/03/31 04:54:01;;;;;;;8.95;4.38;;;;;;;;;;6213692;23;20278;-51
2024/03/31 04:56:27;;;;;;;8.35;4.80;;;;;;;;;;6214351;23;20572;-51
2024/03/31 04:58:55;;;;;;;5.30;4.57;;;;;;;;;;6214046;23;20631;-56
2024/03/31 05:01:21;;;;;;;4.97;4.10;;;;;;;;;;6214346;23;20194;-50
2024/03/31 05:03:49;;;;;;;4.90;4.38;;;;;;;;;;6213741;23;20170;-50
2024/03/31 05:06:15;;;;;;;3.83;3.22;;;;;;;;;;6213943;23;20174;-50
2024/03/31 05:08:44;;;;;;;5.05;4.22;;;;;;;;;;6213718;23;20174;-51
2024/03/31 05:11:10;;;;;;;4.20;3.67;;;;;;;;;;6213658;23;20204;-50
2024/03/31 05:13:38;;;;;;;11.48;4.43;;;;;;;;;;6213881;23;20534;-51
2024/03/31 05:16:07;;;;;;;5.57;3.85;;;;;;;;;;6214123;23;20177;-51
2024/03/31 05:18:35;;;;;;;4.95;3.80;;;;;;;;;;6214318;23;20193;-52
2024/03/31 05:21:04;;;;;;;4.72;3.75;;;;;;;;;;6213553;23;20194;-50
2024/03/31 05:23:32;;;;;;;6.90;3.30;;;;;;;;;;6214548;23;20173;-50
2024/03/31 05:26:01;;;;;;;3.75;3.35;;;;;;;;;;6213630;23;20177;-51
2024/03/31 05:28:28;;;;;;;6.20;4.60;;;;;;;;;;6213971;23;20174;-50
2024/03/31 05:30:56;;;;;;;9.07;4.57;;;;;;;;;;6214037;23;20197;-52
2024/03/31 05:33:22;;;;;;;8.13;4.63;;;;;;;;;;6214177;23;20269;-51
2024/03/31 05:35:50;;;;;;;5.25;4.45;;;;;;;;;;6213852;23;20177;-52
2024/03/31 05:38:17;;;;;;;8.25;3.95;;;;;;;;;;6213344;23;20216;-52
2024/03/31 05:40:45;;;;;;;5.10;4.05;;;;;;;;;;6212805;23;20284;-55
2024/03/31 05:43:13;;;;;;;4.35;3.95;;;;;;;;;;6213720;23;20174;-51
2024/03/31 05:45:42;;;;;;;8.80;5.47;;;;;;;;;;6213757;23;20173;-50
2024/03/31 05:48:09;;;;;;;4.30;3.90;;;;;;;;;;6213586;23;20196;-50
2024/03/31 05:50:37;;;;;;;4.72;3.58;;;;;;;;;;6213733;23;20205;-51
2024/03/31 05:53:04;;;;;;;4.10;3.50;;;;;;;;;;6213514;23;20185;-52
2024/03/31 05:55:32;;;;;;;4.88;3.60;;;;;;;;;;6213556;23;20197;-53
2024/03/31 05:57:59;;;;;;;4.25;3.65;;;;;;;;;;6213610;23;20178;-50
2024/03/31 06:00:28;;;;;;;5.55;4.35;;;;;;;;;;6213655;23;20255;-55
2024/03/31 06:02:55;;;;;;;3.65;3.35;;;;;;;;;;6213830;23;20270;-52
2024/03/31 06:05:22;;;;;;;6.20;3.72;;;;;;;;;;6213290;23;20518;-51
2024/03/31 06:07:50;;;;;;;4.90;3.38;;;;;;;;;;6213459;23;20545;-52
2024/03/31 06:10:18;;;;;;;6.25;4.53;;;;;;;;;;6213301;23;20227;-50
2024/03/31 06:12:45;;;;;;;4.95;3.63;;;;;;;;;;6213007;23;20169;-54
2024/03/31 06:15:12;;;;;;;4.20;3.80;;;;;;;;;;6212866;23;20284;-51
2024/03/31 06:17:40;;;;;;;6.07;4.45;;;;;;;;;;6213367;23;20493;-52
2024/03/31 06:20:09;;;;;;;4.18;3.65;;;;;;;;;;6212618;23;20181;-50
2024/03/31 06:22:39;;;;;;;4.50;3.95;;;;;;;;;;6213264;23;20512;-50
2024/03/31 06:25:07;;;;;;;4.68;3.53;;;;;;;;;;6213163;23;20170;-52
2024/03/31 06:27:34;;;;;;;4.00;3.13;;;;;;;;;;6213502;23;20260;-51
2024/03/31 06:30:02;;;;;;;3.83;3.25;;;;;;;;;;6212575;23;20174;-51
2024/03/31 06:32:29;;;;;;;5.50;3.92;;;;;;;;;;6212991;23;20200;-51
2024/03/31 06:34:57;;;;;;;5.05;4.55;;;;;;;;;;6212470;23;20276;-54
2024/03/31 06:37:24;;;;;;;5.25;3.53;;;;;;;;;;6213300;23;20178;-51
2024/03/31 06:39:52;;;;;;;6.90;3.95;;;;;;;;;;6213066;23;20257;-51
2024/03/31 06:42:18;;;;;;;4.55;3.60;;;;;;;;;;6213047;23;20603;-50
2024/03/31 06:44:46;;;;;;;8.90;4.60;;;;;;;;;;6213140;23;20173;-53
2024/03/31 06:47:12;;;;;;;5.50;4.72;;;;;;;;;;6213049;23;20178;-52
2024/03/31 06:49:39;;;;;;;5.53;4.57;;;;;;;;;;6212766;23;20204;-55
2024/03/31 06:52:08;;;;;;;5.47;3.67;;;;;;;;;;6212638;23;20240;-50
2024/03/31 06:54:35;;;;;;;10.85;5.13;;;;;;;;;;6212985;23;20208;-52
2024/03/31 06:57:04;;;;;;;8.35;5.05;;;;;;;;;;6213191;23;20687;-52
2024/03/31 06:59:31;;;;;;;9.23;5.85;;;;;;;;;;6213456;23;20213;-52
2024/03/31 07:01:58;;;;;;;11.75;5.18;;;;;;;;;;6212780;23;20673;-51
2024/03/31 07:04:25;;;;;;;13.10;6.60;;;;;;;;;;6213144;23;20185;-55
2024/03/31 07:06:52;;;;;;;7.95;5.68;;;;;;;;;;6212718;23;20257;-55
2024/03/31 07:09:20;;;;;;;10.23;6.45;;;;;;;;;;6213103;23;20176;-55
2024/03/31 07:11:47;;;;;;;7.90;5.93;;;;;;;;;;6212699;23;20230;-51
2024/03/31 07:14:14;;;;;;;10.18;6.70;;;;;;;;;;6212108;23;20201;-51
2024/03/31 07:16:41;;;;;;;6.20;4.85;;;;;;;;;;6212913;23;20574;-52
2024/03/31 07:19:08;;;;;;;10.50;6.68;;;;;;;;;;6212871;23;20177;-54
2024/03/31 07:21:35;;;;;;;10.80;6.13;;;;;;;;;;6213044;23;20523;-52
2024/03/31 07:24:02;;;;;;;9.88;5.47;;;;;;;;;;6212445;23;20257;-50
2024/03/31 07:26:30;;;;;;;6.18;4.50;;;;;;;;;;6212513;23;20174;-51
2024/03/31 07:28:57;;;;;;;6.47;3.67;;;;;;;;;;6212607;23;20205;-54
2024/03/31 07:31:25;;;;;;;7.97;5.20;;;;;;;;;;6212808;23;20698;-51
2024/03/31 07:33:52;;;;;;;4.72;4.00;;;;;;;;;;6212556;23;20178;-51
2024/03/31 07:36:19;;;;;;;5.35;4.85;;;;;;;;;;6212867;23;20194;-52
2024/03/31 07:38:46;;;;;;;9.07;4.50;;;;;;;;;;6212748;23;20178;-55
2024/03/31 07:41:13;;;;;;;5.45;4.43;;;;;;;;;;6212230;23;20194;-54
2024/03/31 07:43:42;;;;;;;13.70;7.53;;;;;;;;;;6212506;23;20174;-53
2024/03/31 07:46:08;;;;;;;7.75;5.93;;;;;;;;;;6212957;23;20257;-54
2024/03/31 07:48:36;;;;;;;7.53;6.00;;;;;;;;;;6212737;23;20585;-53
2024/03/31 07:51:03;;;;;;;7.53;5.28;;;;;;;;;;6212741;23;20244;-53
2024/03/31 07:53:30;;;;;;;6.55;5.05;;;;;;;;;;6212843;23;20184;-55
2024/03/31 07:55:57;;;;;;;8.85;6.20;;;;;;;;;;6212528;23;20208;-56
2024/03/31 07:58:25;;;;;;;6.13;4.68;;;;;;;;;;6213185;23;20200;-52
2024/03/31 08:00:54;;;;;;;8.52;6.03;;;;;;;;;;6213256;23;20729;-55
2024/03/31 08:03:22;;;;;;;10.88;4.35;;;;;;;;;;6213409;23;20228;-55
2024/03/31 08:05:48;;;;;;;7.18;5.22;;;;;;;;;;6213945;23;20256;-50
2024/03/31 08:08:16;;;;;;;5.13;4.25;;;;;;;;;;6214402;23;20188;-51
2024/03/31 08:10:43;;;;;;;6.85;5.55;;;;;;;;;;6214778;23;20193;-52
2024/03/31 08:13:10;;;;;;;9.05;5.57;;;;;;;;;;6214536;23;20187;-50
2024/03/31 08:15:37;;;;;;;5.85;5.07;;;;;;;;;;6214939;23;20276;-51
2024/03/31 08:18:09;;;;;;;14.60;8.32;;;;;;;;;;6214895;23;20695;-50
2024/03/31 08:20:35;;;;;;;8.60;5.22;;;;;;;;;;6214585;23;20193;-50
2024/03/31 08:23:03;;;;;;;8.77;7.45;;;;;;;;;;6214633;23;20515;-51
2024/03/31 08:25:30;;;;;;;6.65;5.70;;;;;;;;;;6214707;23;20666;-51
2024/03/31 08:27:58;;;;;;;12.88;7.88;;;;;;;;;;6214200;23;20174;-50
2024/03/31 08:30:25;;;;;;;17.83;8.02;;;;;;;;;;6214395;23;20173;-53
2024/03/31 08:32:52;;;;;;;8.32;5.93;;;;;;;;;;6213842;23;20180;-54
2024/03/31 08:35:20;;;;;;;10.13;6.07;;;;;;;;;;6214295;23;20201;-51
2024/03/31 08:37:48;;;;;;;9.93;5.47;;;;;;;;;;6213812;23;20174;-51
2024/03/31 08:40:14;;;;;;;13.02;7.25;;;;;;;;;;6215086;23;20178;-50
2024/03/31 08:42:48;;;;;;;7.07;5.45;;;;;;;;;;6214132;23;20209;-52
2024/03/31 08:45:14;;;;;;;5.55;4.60;;;;;;;;;;6215108;23;20154;-50
2024/03/31 08:47:44;;;;;;;10.90;5.38;;;;;;;;;;6214761;23;20174;-52
2024/03/31 08:50:11;;;;;;;8.93;4.72;;;;;;;;;;6213997;23;20503;-50
2024/03/31 08:52:39;;;;;;;10.07;5.55;;;;;;;;;;6214432;23;20183;-52
2024/03/31 08:55:07;;;;;;;4.82;4.30;;;;;;;;;;6214486;23;20211;-50
2024/03/31 08:57:36;;;;;;;12.70;6.40;;;;;;;;;;6214164;23;20254;-53
2024/03/31 09:00:04;;;;;;;7.95;5.35;;;;;;;;;;6214697;23;20181;-50
2024/03/31 09:02:32;;;;;;;7.50;5.82;;;;;;;;;;6214242;23;20201;-52
2024/03/31 09:04:59;;;;;;;6.18;4.35;;;;;;;;;;6214421;23;20178;-51
2024/03/31 09:07:26;;;;;;;6.75;5.30;;;;;;;;;;6214688;23;20273;-50
2024/03/31 09:09:54;;;;;;;10.25;5.47;;;;;;;;;;6214219;23;20261;-55
2024/03/31 09:12:22;;;;;;;10.30;7.60;;;;;;;;;;6213378;23;20271;-50
2024/03/31 09:14:48;;;;;;;6.93;5.57;;;;;;;;;;6214046;23;20181;-51
2024/03/31 09:17:15;;;;;;;9.00;6.10;;;;;;;;;;6213999;23;20174;-51
2024/03/31 09:19:42;;;;;;;9.50;6.05;;;;;;;;;;6214024;23;20184;-50
2024/03/31 09:22:14;;;;;;;7.63;4.97;;;;;;;;;;6214401;23;20193;-50
2024/03/31 09:24:42;;;;;;;8.18;4.70;;;;;;;;;;6214101;23;20181;-50
2024/03/31 09:27:11;;;;;;;6.07;5.03;;;;;;;;;;6214012;22;20245;-51
2024/03/31 09:29:41;;;;;;;6.82;4.50;;;;;;;;;;6213624;23;20174;-50
2024/03/31 09:32:13;;;;;;;8.48;5.28;;;;;;;;;;6213877;23;20244;-51
2024/03/31 09:34:43;;;;;;;12.95;5.90;;;;;;;;;;6214378;23;20173;-50
2024/03/31 09:37:11;;;;;;;11.43;6.07;;;;;;;;;;6214065;23;20228;-50
2024/03/31 09:39:38;;;;;;;10.25;6.45;;;;;;;;;;6214051;23;20186;-54
2024/03/31 09:42:06;;;;;;;8.23;5.25;;;;;;;;;;6213594;23;20194;-50
2024/03/31 09:44:37;;;;;;;7.80;4.43;;;;;;;;;;6214266;23;20174;-50
2024/03/31 09:47:07;;;;;;;6.97;4.43;;;;;;;;;;6214202;23;20158;-51
2024/03/31 09:49:39;;;;;;;4.78;3.88;;;;;;;;;;6214414;23;20191;-51
2024/03/31 09:52:08;;;;;;;11.07;4.43;;;;;;;;;;6214178;23;20662;-51
2024/03/31 09:54:41;;;;;;;8.73;4.82;;;;;;;;;;6215428;23;20200;-54
2024/03/31 09:57:11;;;;;;;5.78;3.22;;;;;;;;;;6215458;23;20188;-53
2024/03/31 09:59:41;;;;;;;6.50;4.22;;;;;;;;;;6214777;23;20261;-52
2024/03/31 10:02:09;;;;;;;8.73;3.70;;;;;;;;;;6214921;23;20201;-52
2024/03/31 10:04:41;;;;;;;6.35;4.65;;;;;;;;;;6214829;23;20174;-51
2024/03/31 10:07:09;;;;;;;5.97;4.18;;;;;;;;;;6214334;23;20173;-52
2024/03/31 10:09:36;;;;;;;6.53;4.15;;;;;;;;;;6214688;23;20638;-51
2024/03/31 10:12:04;;;;;;;6.82;4.60;;;;;;;;;;6214967;23;20197;-52
2024/03/31 10:14:31;;;;;;;9.45;5.13;;;;;;;;;;6214194;23;20268;-51
2024/03/31 10:17:01;;;;;;;5.18;3.72;;;;;;;;;;6213318;23;20197;-51
2024/03/31 10:19:28;;;;;;;5.85;3.85;;;;;;;;;;6214606;23;20224;-52
2024/03/31 10:21:59;;;;;;;5.43;3.50;;;;;;;;;;6214080;23;20216;-52
2024/03/31 10:24:26;;;;;;;6.72;4.13;;;;;;;;;;6214766;23;20500;-53
2024/03/31 10:26:55;;;;;;;9.40;2.83;;;;;;;;;;6214138;23;20181;-55
2024/03/31 10:29:22;;;;;;;11.10;3.97;;;;;;;;;;6214361;23;20216;-53
2024/03/31 10:31:49;;;;;;;4.80;2.70;;;;;;;;;;6214081;23;20194;-53
2024/03/31 10:34:17;;;;;;;8.00;3.63;;;;;;;;;;6214350;23;20265;-51
2024/03/31 10:36:46;;;;;;;5.63;2.75;;;;;;;;;;6213928;23;20254;-56
2024/03/31 10:39:14;;;;;;;10.52;3.67;;;;;;;;;;6214900;23;20583;-53
2024/03/31 10:41:42;;;;;;;4.82;2.33;;;;;;;;;;6213712;23;20194;-50
2024/03/31 10:44:08;;;;;;;5.63;4.05;;;;;;;;;;6214035;23;20180;-52
2024/03/31 10:46:37;;;;;;;3.00;1.92;;;;;;;;;;6214059;23;20699;-54
2024/03/31 10:49:05;;;;;;;3.90;1.88;;;;;;;;;;6214379;23;20208;-51
2024/03/31 10:51:35;;;;;;;4.28;2.03;;;;;;;;;;6214517;23;20255;-51
2024/03/31 10:54:27;;;;;;;2.50;1.83;;;;;;;;;;6213953;23;20204;-54
2024/03/31 10:57:01;;;;;;;2.08;1.60;;;;;;;;;;6214059;23;20577;-52
2024/03/31 10:59:29;;;;;;;2.53;1.30;;;;;;;;;;6214393;23;20162;-55
2024/03/31 11:01:58;;;;;;;7.05;2.47;;;;;;;;;;6214147;23;20198;-55
2024/03/31 11:04:25;;;;;;;6.60;2.42;;;;;;;;;;6214142;23;20173;-51
2024/03/31 11:06:56;;;;;;;4.70;2.58;;;;;;;;;;6213996;23;20175;-53
2024/03/31 11:09:23;;;;;;;2.28;1.30;;;;;;;;;;6214664;23;20498;-54
2024/03/31 11:11:50;;;;;;;2.20;1.35;;;;;;;;;;6213979;23;20205;-52
2024/03/31 11:14:17;;;;;;;5.28;2.10;;;;;;;;;;6213786;23;20181;-51
2024/03/31 11:16:44;;;;;;;3.40;1.85;;;;;;;;;;6213793;23;20219;-53
2024/03/31 11:19:11;;;;;;;6.43;1.90;;;;;;;;;;6214485;23;20502;-54
2024/03/31 11:21:39;;;;;;;7.13;2.08;;;;;;;;;;6214901;23;20301;-52
2024/03/31 11:24:08;;;;;;;5.65;1.77;;;;;;;;;;6212920;23;20252;-53
2024/03/31 11:26:38;;;;;;;6.75;2.35;;;;;;;;;;6212201;23;20176;-53
2024/03/31 11:29:05;;;;;;;5.70;2.80;;;;;;;;;;6213252;23;20182;-52
2024/03/31 11:31:33;;;;;;;4.50;1.70;;;;;;;;;;6212635;23;20204;-54
2024/03/31 11:34:00;;;;;;;4.38;1.92;;;;;;;;;;6213061;23;20261;-55
2024/03/31 11:36:29;;;;;;;3.22;1.27;;;;;;;;;;6212700;23;20194;-54
2024/03/31 11:38:55;;;;;;;3.47;1.50;;;;;;;;;;6213954;23;20170;-52
2024/03/31 11:41:24;;;;;;;4.63;2.28;;;;;;;;;;6214499;23;20232;-52
2024/03/31 11:43:51;;;;;;;7.32;2.15;;;;;;;;;;6214863;23;20209;-52
2024/03/31 11:46:19;;;;;;;9.38;2.85;;;;;;;;;;6215256;23;20220;-55
2024/03/31 11:48:45;;;;;;;3.75;1.88;;;;;;;;;;6214356;23;20174;-52
2024/03/31 11:51:13;;;;;;;6.03;2.40;;;;;;;;;;6214425;23;20280;-54
2024/03/31 11:53:40;;;;;;;7.25;2.45;;;;;;;;;;6213952;23;20256;-52
2024/03/31 11:56:08;;;;;;;6.95;2.50;;;;;;;;;;6214950;23;20742;-55
2024/03/31 11:58:37;;;;;;;8.48;4.20;;;;;;;;;;6215126;23;20253;-54
2024/03/31 12:01:07;;;;;;;9.82;2.90;;;;;;;;;;6214103;23;20264;-54
2024/03/31 12:03:35;;;;;;;5.97;2.85;;;;;;;;;;6215096;23;20177;-53
2024/03/31 12:06:03;;;;;;;7.57;2.88;;;;;;;;;;6214705;23;20642;-54
2024/03/31 12:08:30;;;;;;;7.38;2.38;;;;;;;;;;6215066;23;20174;-53
2024/03/31 12:10:58;;;;;;;6.38;2.70;;;;;;;;;;6214166;23;20244;-53
2024/03/31 12:13:25;;;;;;;6.53;2.60;;;;;;;;;;6213852;23;20181;-52
2024/03/31 12:15:54;;;;;;;6.43;2.35;;;;;;;;;;6214983;23;20638;-55
2024/03/31 12:18:20;;;;;;;8.30;3.75;;;;;;;;;;6214564;23;20505;-51
2024/03/31 12:20:48;;;;;;;6.97;2.58;;;;;;;;;;6213652;23;20580;-53
2024/03/31 12:23:14;;;;;;;8.60;3.13;;;;;;;;;;6214002;23;20180;-54
2024/03/31 12:25:42;;;;;;;8.30;3.45;;;;;;;;;;6214137;23;20174;-51
2024/03/31 12:28:08;;;;;;;4.93;2.78;;;;;;;;;;6214538;23;20262;-53
2024/03/31 12:30:43;;;;;;;6.03;3.47;;;;;;;;;;6213939;23;20693;-51
2024/03/31 12:33:10;;;;;;;7.90;3.03;;;;;;;;;;6214330;23;20158;-54
2024/03/31 12:35:39;;;;;;;11.55;3.55;;;;;;;;;;6214314;23;20197;-52
2024/03/31 12:38:05;;;;;;;8.70;2.90;;;;;;;;;;6214414;23;20193;-53
2024/03/31 12:40:33;;;;;;;9.25;3.58;;;;;;;;;;6214142;23;20205;-51
2024/03/31 12:42:59;;;;;;;3.55;2.15;;;;;;;;;;6213746;23;20196;-51
2024/03/31 12:45:27;;;;;;;6.13;2.40;;;;;;;;;;6213427;23;20185;-56
2024/03/31 12:47:53;;;;;;;4.80;1.85;;;;;;;;;;6213690;23;20209;-56
2024/03/31 12:50:22;;;;;;;7.82;2.97;;;;;;;;;;6214054;23;20174;-54
2024/03/31 12:52:49;;;;;;;5.93;2.78;;;;;;;;;;6213732;23;20177;-51
2024/03/31 12:55:20;;;;;;;8.93;3.13;;;;;;;;;;6213755;23;20258;-50
2024/03/31 12:57:47;;;;;;;8.20;2.70;;;;;;;;;;6214433;23;20182;-51
2024/03/31 13:00:14;;;;;;;6.82;4.15;;;;;;;;;;6213589;23;20174;-50
2024/03/31 13:02:42;;;;;;;8.35;2.95;;;;;;;;;;6213462;23;20185;-52
2024/03/31 13:05:10;;;;;;;11.93;3.33;;;;;;;;;;6213708;23;20179;-53
2024/03/31 13:07:39;;;;;;;8.45;2.72;;;;;;;;;;6214505;23;20170;-53
2024/03/31 13:10:07;;;;;;;9.60;3.70;;;;;;;;;;6213731;23;20173;-52
2024/03/31 13:12:34;;;;;;;16.85;4.20;;;;;;;;;;6213604;23;20173;-54
2024/03/31 13:15:01;;;;;;;4.63;2.58;;;;;;;;;;6213857;23;20185;-52
2024/03/31 13:17:28;;;;;;;9.02;3.40;;;;;;;;;;6213558;23;20193;-56
2024/03/31 13:19:57;;;;;;;9.50;3.88;;;;;;;;;;6213860;23;20248;-55
2024/03/31 13:22:24;;;;;;;5.53;2.78;;;;;;;;;;6213556;23;20225;-55
2024/03/31 13:24:53;;;;;;;7.32;2.50;;;;;;;;;;6213855;23;20181;-57
2024/03/31 13:27:19;;;;;;;10.50;3.50;;;;;;;;;;6213999;23;20173;-54
2024/03/31 13:29:47;;;;;;;4.78;2.25;;;;;;;;;;6213478;23;20177;-57
2024/03/31 13:32:13;;;;;;;10.10;3.22;;;;;;;;;;6213333;23;20229;-54
2024/03/31 13:34:41;;;;;;;11.85;3.33;;;;;;;;;;6212844;23;20184;-55
2024/03/31 13:37:07;;;;;;;8.68;3.67;;;;;;;;;;6213931;23;20606;-55
2024/03/31 13:39:34;;;;;;;10.57;3.28;;;;;;;;;;6213378;23;20178;-53
2024/03/31 13:42:03;;;;;;;10.70;3.47;;;;;;;;;;6213472;23;20534;-51
2024/03/31 13:44:30;;;;;;;6.53;3.33;;;;;;;;;;6213318;23;20178;-54
2024/03/31 13:46:57;;;;;;;10.75;3.58;;;;;;;;;;6213519;23;20653;-53
2024/03/31 13:49:24;;;;;;;7.10;3.05;;;;;;;;;;6213336;23;20178;-52
2024/03/31 13:51:51;;;;;;;7.20;3.67;;;;;;;;;;6213127;23;20200;-52
2024/03/31 13:54:18;;;;;;;8.65;3.15;;;;;;;;;;6212714;23;20260;-56
2024/03/31 13:56:45;;;;;;;9.65;3.75;;;;;;;;;;6213290;23;20182;-52
2024/03/31 13:59:13;;;;;;;8.02;3.53;;;;;;;;;;6213045;23;20200;-59
2024/03/31 14:01:40;;;;;;;5.50;2.83;;;;;;;;;;6213248;23;20198;-55
2024/03/31 14:04:08;;;;;;;8.10;3.17;;;;;;;;;;6212517;23;20180;-55
2024/03/31 14:06:35;;;;;;;8.88;3.08;;;;;;;;;;6213911;23;20181;-56
2024/03/31 14:09:05;;;;;;;9.07;4.13;;;;;;;;;;6213249;23;20252;-56
2024/03/31 14:11:31;;;;;;;8.57;3.40;;;;;;;;;;6213687;23;20693;-53
2024/03/31 14:13:59;;;;;;;6.93;3.35;;;;;;;;;;6212682;23;20269;-51
2024/03/31 14:16:27;;;;;;;8.77;2.97;;;;;;;;;;6212661;23;20228;-53
2024/03/31 14:18:54;;;;;;;8.75;2.78;;;;;;;;;;6212779;23;20696;-54
2024/03/31 14:21:21;;;;;;;11.75;4.32;;;;;;;;;;6213103;23;20602;-56
2024/03/31 14:23:48;;;;;;;10.25;3.78;;;;;;;;;;6211046;23;20178;-57
2024/03/31 14:26:15;;;;;;;10.00;4.50;;;;;;;;;;6213025;23;20174;-55
2024/03/31 14:28:43;;;;;;;16.35;3.80;;;;;;;;;;6212913;23;20201;-52
2024/03/31 14:31:10;;;;;;;7.18;3.20;;;;;;;;;;6212924;23;20236;-55
2024/03/31 14:33:39;;;;;;;7.70;2.80;;;;;;;;;;6212214;23;20178;-52
2024/03/31 14:36:06;;;;;;;11.45;4.00;;;;;;;;;;6212030;23;20502;-54
2024/03/31 14:38:33;;;;;;;10.35;2.95;;;;;;;;;;6211608;23;20612;-54
2024/03/31 14:41:00;;;;;;;11.20;4.88;;;;;;;;;;6212055;23;20193;-53
2024/03/31 14:43:28;;;;;;;25.13;4.78;;;;;;;;;;6211414;23;20189;-52